Weather at Niš Constantine the Great Airport

Public forecast

Using degrees Celsius for public forecast. Weather courtesy of forecast.io.

Current aviation weather report (METAR) for Niš Constantine the Great Airport

2024/05/19 08:00 (retrieved 17 minutes ago)

LYNI 190800Z 11004KT 070V140 9999 SCT015 BKN023 20/17 Q1015 NOSIG

Aviation forecast (TAF) for Niš Constantine the Great Airport

2024/05/19 06:21 (retrieved 2 hours ago)

TAF LYNI 190500Z 1906/2006 10005KT 9999 BKN040 TX23/1914Z TN16/2003Z PROB30 TEMPO 1913/1916 VRB15KT 4000 TSRA SCT033CB BKN040 TEMPO 1923/2004 24015KT 4000 TSRA SCT010 SCT030CB BKN040